Time;durP1;ratioP1;P1;durP2;ratioP2;P2;SDS_P1;SDS_P2;PMS_P1;PMS_P2;Temp;Humidity;BMP_temperature;BMP_pressure;BME280_temperature;BME280_humidity;BME280_pressure;Samples;Min_cycle;Max_cycle;Signal;HPM_P1;HPM_P2
2021/04/22 00:00:43;;;;;;;;;;;8.90;99.90;;;7.44;72.89;95704.22;10376450;28;1731;-81
2021/04/22 00:05:45;;;;;;;;;;;8.40;99.90;;;7.54;72.30;95698.16;10387619;28;1987;-81
2021/04/22 00:10:47;;;;;;;;;;;9.20;99.90;;;7.61;72.28;95695.28;10381128;28;1845;-83
2021/04/22 00:15:49;;;;;;;;;;;9.20;99.90;;;7.57;72.75;95693.13;10381427;28;1906;-80
2021/04/22 00:20:52;;;;;;;;;;;8.60;99.90;;;7.61;71.98;95690.72;10371903;28;1927;-79
2021/04/22 00:25:54;;;;;;;;;;;8.60;99.90;;;7.56;71.98;95686.13;10365913;28;1975;-82
2021/04/22 00:30:56;;;;;;;;;;;8.60;99.90;;;7.68;72.00;95683.28;10359540;28;1854;-78
2021/04/22 00:35:59;;;;;;;;;;;8.60;99.90;;;7.80;71.29;95672.38;10393389;28;2050;-80
2021/04/22 00:41:01;;;;;;;;;;;8.70;99.90;;;7.92;70.70;95678.34;10372392;28;1654;-78
2021/04/22 00:46:02;;;;;;;;;;;9.80;99.90;;;7.99;71.21;95676.25;10362246;28;1977;-80
2021/04/22 00:51:04;;;;;;;;;;;8.90;99.90;;;7.94;74.62;95673.53;10376338;28;2020;-83
2021/04/22 00:56:06;;;;;;;;;;;8.90;99.90;;;7.86;75.00;95666.00;10388492;28;2044;-80
2021/04/22 01:01:08;;;;;;;;;;;9.00;99.90;;;7.92;75.01;95667.66;10394034;28;1810;-81
2021/04/22 01:06:12;;;;;;;;;;;8.90;99.90;;;7.82;74.15;95651.53;10357220;28;3302;-80
2021/04/22 01:11:15;;;;;;;;;;;8.90;99.90;;;7.80;75.47;95648.31;10366771;28;1957;-82
2021/04/22 01:16:17;;;;;;;;;;;8.90;99.90;;;7.76;75.20;95653.38;10367120;28;1974;-79
2021/04/22 01:21:20;;;;;;;;;;;9.00;99.90;;;7.82;75.01;95649.69;10367814;28;1914;-79
2021/04/22 01:26:23;;;;;;;;;;;8.80;99.90;;;7.95;72.93;95655.59;10369539;28;1974;-80
2021/04/22 01:31:27;;;;;;;;;;;8.80;99.90;;;8.21;69.11;95684.16;10381096;28;1792;-83
2021/04/22 01:36:30;;;;;;;;;;;9.10;99.90;;;8.15;70.12;95687.06;10364810;28;1923;-82
2021/04/22 01:41:33;;;;;;;;;;;10.10;99.90;;;8.11;69.76;95681.41;10370871;28;2898;-81
2021/04/22 01:46:36;;;;;;;;;;;9.20;99.90;;;7.99;70.91;95686.97;10380086;28;1985;-82
2021/04/22 01:51:39;;;;;;;;;;;9.70;99.90;;;7.91;70.85;95682.09;10382266;28;2025;-80
2021/04/22 01:56:44;;;;;;;;;;;9.90;99.90;;;7.86;70.39;95679.38;10365516;28;1766;-80
2021/04/22 02:01:46;;;;;;;;;;;9.10;99.90;;;8.00;68.18;95685.88;10368979;28;1817;-79
2021/04/22 02:06:49;;;;;;;;;;;9.00;99.90;;;8.10;67.17;95675.25;10396160;28;1987;-79
2021/04/22 02:11:51;;;;;;;;;;;9.10;99.90;;;8.16;66.31;95669.94;10364930;28;1371;-79
2021/04/22 02:16:54;;;;;;;;;;;9.10;99.90;;;8.11;67.21;95665.34;10381464;28;2091;-80
2021/04/22 02:21:58;;;;;;;;;;;9.20;99.90;;;8.01;67.73;95667.97;10368701;28;1806;-79
2021/04/22 02:27:03;;;;;;;;;;;9.10;99.90;;;7.89;68.08;95664.69;10368669;28;2246;-80
2021/04/22 02:32:06;;;;;;;;;;;9.00;99.90;;;7.84;68.29;95660.13;10379019;28;2044;-78
2021/04/22 02:37:08;;;;;;;;;;;9.00;99.90;;;7.82;69.07;95668.41;10375109;28;1888;-80
2021/04/22 02:42:11;;;;;;;;;;;8.90;99.90;;;7.77;69.29;95665.69;10370820;28;2353;-79
2021/04/22 02:47:14;;;;;;;;;;;8.90;99.90;;;7.73;68.24;95669.13;10367201;28;1970;-80
2021/04/22 02:52:16;;;;;;;;;;;8.90;99.90;;;7.67;68.53;95668.28;10385050;28;1861;-78
2021/04/22 02:57:24;;;;;;;;;;;10.10;99.90;;;7.84;67.25;95665.47;10361845;28;1780;-81
2021/04/22 03:02:29;;;;;;;;;;;9.10;99.90;;;7.85;67.17;95672.44;10363863;28;1626;-80
2021/04/22 03:07:34;;;;;;;;;;;8.90;99.90;;;7.88;67.04;95681.81;10368521;28;1987;-79
2021/04/22 03:12:36;;;;;;;;;;;8.90;99.90;;;7.96;67.20;95675.97;10371637;28;1917;-79
2021/04/22 03:17:39;;;;;;;;;;;9.00;99.90;;;7.96;67.87;95689.38;10374396;28;2123;-81
2021/04/22 03:22:42;;;;;;;;;;;9.00;99.90;;;8.09;67.02;95683.53;10362998;28;1474;-81
2021/04/22 03:27:47;;;;;;;;;;;9.00;99.90;;;8.07;67.37;95689.13;10360683;28;2038;-79
2021/04/22 03:32:53;;;;;;;;;;;9.40;99.90;;;8.01;67.84;95687.50;10366982;28;1759;-80
2021/04/22 03:37:56;;;;;;;;;;;9.80;99.90;;;8.01;68.20;95702.75;10381940;28;1984;-80
2021/04/22 03:42:59;;;;;;;;;;;10.00;99.90;;;8.01;68.72;95718.81;10376783;28;1950;-81
2021/04/22 03:48:09;;;;;;;;;;;9.10;99.90;;;7.88;72.13;95717.41;10392516;28;1998;-79
2021/04/22 03:53:12;;;;;;;;;;;9.30;99.90;;;7.66;73.46;95732.78;10358278;28;1686;-80
2021/04/22 03:58:14;;;;;;;;;;;8.90;99.90;;;7.48;74.83;95737.44;10391440;28;1897;-81
2021/04/22 04:03:16;;;;;;;;;;;8.70;99.90;;;7.28;76.96;95731.91;10363090;28;1651;-83
2021/04/22 04:08:19;;;;;;;;;;;8.50;99.90;;;7.16;76.96;95724.03;10381864;28;1891;-80
2021/04/22 04:13:21;;;;;;;;;;;8.40;99.90;;;7.10;77.74;95722.38;10377837;28;1667;-80
2021/04/22 04:18:24;;;;;;;;;;;8.30;99.90;;;7.05;77.51;95719.66;10365568;28;1930;-80
2021/04/22 04:23:26;;;;;;;;;;;8.20;99.90;;;6.96;78.07;95730.00;10365447;28;2024;-79
2021/04/22 04:28:31;;;;;;;;;;;9.20;99.90;;;7.00;78.29;95731.13;10353354;28;2082;-80
2021/04/22 04:44:57;;;;;;;;;;;8.90;99.90;;;7.19;77.44;95757.47;10359618;28;2093;-82
2021/04/22 04:50:15;;;;;;;;;;;9.40;99.90;;;7.31;77.46;95758.13;10370678;28;2341;-79
2021/04/22 04:55:46;;;;;;;;;;;9.00;99.90;;;7.48;76.66;95764.19;10364984;28;2008;-78
2021/04/22 05:06:31;;;;;;;;;;;9.00;99.90;;;7.68;76.17;95774.25;10360570;28;2154;-79
2021/04/22 05:11:58;;;;;;;;;;;8.70;99.90;;;7.76;76.40;95783.66;10356648;28;2025;-80
2021/04/22 05:17:43;;;;;;;;;;;9.00;99.90;;;7.89;75.39;95803.84;10364449;28;2046;-83
2021/04/22 05:22:51;;;;;;;;;;;10.70;99.90;;;8.11;75.04;95810.72;10385415;28;2027;-80
2021/04/22 05:28:02;;;;;;;;;;;9.00;99.90;;;8.27;73.96;95825.03;10401718;28;2259;-82
2021/04/22 05:44:44;;;;;;;;;;;9.30;99.90;;;8.84;71.32;95820.81;10260902;28;2127;-81
2021/04/22 05:49:48;;;;;;;;;;;11.10;99.90;;;8.99;70.87;95826.25;10299451;28;1991;-81
2021/04/22 05:55:03;;;;;;;;;;;9.80;99.90;;;9.08;69.69;95824.69;10306356;28;2043;-87
2021/04/22 06:06:30;;;;;;;;;;;10.00;99.90;;;9.52;67.92;95829.63;10422092;28;1957;-82
2021/04/22 06:11:50;;;;;;;;;;;10.20;99.90;;;9.73;67.11;95828.63;10406447;28;1944;-82
2021/04/22 06:16:52;;;;;;;;;;;10.50;99.90;;;10.24;66.55;95826.00;10378369;28;1920;-81
2021/04/22 06:21:54;;;;;;;;;;;10.80;99.90;;;10.36;65.55;95836.44;10387241;28;1949;-83
2021/04/22 06:32:38;;;;;;;;;;;11.20;99.90;;;10.27;64.63;95846.94;10366972;28;2010;-80
2021/04/22 06:37:49;;;;;;;;;;;11.20;99.90;;;10.09;64.95;95850.13;10383200;28;1970;-79
2021/04/22 06:43:03;;;;;;;;;;;11.10;99.90;;;9.85;65.93;95849.81;10383567;28;2043;-86
2021/04/22 06:59:10;;;;;;;;;;;12.10;99.90;;;11.74;59.37;95855.59;10396776;28;2027;-86
2021/04/22 07:04:18;;;;;;;;;;;12.50;99.90;;;11.71;58.40;95855.38;10397656;28;2044;-83
2021/04/22 07:09:42;;;;;;;;;;;12.50;99.90;;;11.28;60.34;95861.22;10398737;28;2096;-84
2021/04/22 07:14:49;;;;;;;;;;;12.20;99.90;;;10.75;62.49;95876.16;10380391;28;2027;-86
2021/04/22 07:20:04;;;;;;;;;;;11.80;99.90;;;10.75;63.39;95868.09;10399422;28;1720;-88
2021/04/22 07:25:26;;;;;;;;;;;11.70;99.90;;;11.53;60.91;95878.34;10420501;28;2017;-89
2021/04/22 07:30:38;;;;;;;;;;;12.20;99.90;;;12.25;57.73;95884.13;10411193;28;1925;-87
2021/04/22 07:35:52;;;;;;;;;;;;;;;;;;;;;
2021/04/22 07:41:07;;;;;;;;;;;12.90;99.90;;;12.14;57.18;95900.34;10410540;28;1822;-88
2021/04/22 07:57:40;;;;;;;;;;;14.00;99.90;;;13.06;53.92;95912.25;10381845;28;2065;-88
2021/04/22 08:03:20;;;;;;;;;;;13.90;99.90;;;14.09;50.21;95910.75;10394286;28;2309;-88
2021/04/22 08:08:31;;;;;;;;;;;14.50;99.10;;;13.38;52.12;95915.19;10392481;28;2412;-89
2021/04/22 08:25:20;;;;;;;;;;;14.70;95.60;;;14.25;49.23;95920.25;10399122;28;1983;-84
2021/04/22 08:30:52;;;;;;;;;;;15.00;93.70;;;14.22;49.51;95925.44;10386476;28;2032;-87
2021/04/22 08:36:20;;;;;;;;;;;15.00;93.00;;;14.31;49.55;95929.06;10394313;28;1689;-85
2021/04/22 08:41:23;;;;;;;;;;;15.10;92.30;;;15.13;48.20;95934.00;10389249;28;1888;-85
2021/04/22 08:46:46;;;;;;;;;;;;;;;;;;;;;
2021/04/22 08:52:14;;;;;;;;;;;15.50;91.30;;;13.55;52.64;95938.19;10216120;29;1957;-87
2021/04/22 09:03:01;;;;;;;;;;;14.80;94.40;;;13.98;51.75;95947.91;10223167;29;2296;-87
2021/04/22 09:08:30;;;;;;;;;;;15.00;93.50;;;14.37;50.11;95948.72;10230657;29;1954;-89
2021/04/22 09:19:24;;;;;;;;;;;14.90;92.40;;;14.00;51.73;95958.47;10228492;29;2101;-87
2021/04/22 09:24:27;;;;;;;;;;;15.00;92.50;;;14.24;51.84;95961.88;10214559;29;2076;-87
2021/04/22 09:30:19;;;;;;;;;;;15.00;93.20;;;14.29;50.79;95953.72;10405242;28;2129;-88
2021/04/22 09:58:41;;;;;;;;;;;15.00;89.10;;;14.18;48.55;95954.94;10396650;28;1986;-86
2021/04/22 10:22:39;;;;;;;;;;;14.50;89.50;;;13.65;51.25;95948.88;10178721;29;2029;-82
2021/04/22 10:27:41;;;;;;;;;;;14.70;89.50;;;13.59;51.88;95956.25;10162242;29;2073;-84
2021/04/22 10:44:48;;;;;;;;;;;14.70;89.30;;;13.88;50.28;95966.97;10431775;22;1970;-84
2021/04/22 10:49:55;;;;;;;;;;;14.60;88.60;;;14.09;49.00;95969.41;10426248;28;1957;-87
2021/04/22 10:55:12;;;;;;;;;;;14.90;87.10;;;13.71;50.01;95970.16;10433567;28;1982;-86
2021/04/22 11:00:20;;;;;;;;;;;15.00;86.50;;;14.25;49.33;95965.38;10443073;28;1579;-85
2021/04/22 11:05:42;;;;;;;;;;;14.90;87.50;;;13.94;48.84;95962.31;10429719;28;1986;-85
2021/04/22 11:10:46;;;;;;;;;;;14.90;86.20;;;15.34;44.95;95947.97;10413541;28;1989;-84
2021/04/22 11:15:49;;;;;;;;;;;15.60;83.70;;;14.24;48.03;95963.78;10412942;28;1941;-85
2021/04/22 11:45:30;;;;;;;;;;;15.00;83.20;;;13.77;48.71;95946.59;10262101;28;2200;-85
2021/04/22 12:44:53;;;;;;;;;;;15.80;76.70;;;15.19;40.75;95932.78;10346757;28;2043;-85
2021/04/22 13:21:40;;;;;;;;;;;15.90;70.70;;;14.57;39.25;95949.28;10229660;28;1848;-84
2021/04/22 15:10:25;;;;;;;;;;;14.40;54.20;;;13.33;25.18;95969.22;10283027;28;2112;-87
2021/04/22 15:16:00;;;;;;;;;;;14.40;50.20;;;13.18;24.88;95977.47;10310169;28;2157;-83
2021/04/22 15:21:10;;;;;;;;;;;14.20;49.40;;;13.13;22.34;95972.91;10319894;28;1924;-83
2021/04/22 15:32:24;;;;;;;;;;;14.00;41.80;;;12.92;20.31;95983.09;10329667;28;2080;-85
2021/04/22 15:37:32;;;;;;;;;;;14.00;42.90;;;12.85;22.00;95987.16;10363586;28;2018;-86
2021/04/22 15:42:35;;;;;;;;;;;14.00;43.70;;;12.61;21.51;95995.19;10382412;28;2085;-84
2021/04/22 15:47:40;;;;;;;;;;;13.80;42.90;;;12.57;21.59;95984.16;10395931;28;2019;-83
2021/04/22 15:52:45;;;;;;;;;;;13.60;43.30;;;12.25;21.68;95992.72;10373955;28;1992;-82
2021/04/22 15:57:53;;;;;;;;;;;13.40;43.50;;;12.24;22.90;95996.50;10352242;28;2047;-82
2021/04/22 16:03:11;;;;;;;;;;;13.30;44.50;;;12.33;23.30;96005.59;10357639;28;2064;-81
2021/04/22 16:08:22;;;;;;;;;;;13.40;44.70;;;12.20;22.78;96000.84;10376491;28;2518;-81
2021/04/22 16:13:26;;;;;;;;;;;13.30;44.30;;;12.07;21.46;96001.44;10369467;28;1993;-81
2021/04/22 16:18:34;;;;;;;;;;;13.20;42.90;;;11.92;21.17;96017.69;10369852;28;2047;-84
2021/04/22 16:23:49;;;;;;;;;;;13.00;42.40;;;11.79;22.62;96017.16;10372824;28;1890;-83
2021/04/22 16:28:51;;;;;;;;;;;12.90;44.00;;;11.80;23.13;96013.38;10376134;28;2108;-83
2021/04/22 16:33:54;;;;;;;;;;;12.90;44.70;;;11.64;23.25;96030.66;10377154;28;2027;-86
2021/04/22 16:38:57;;;;;;;;;;;12.70;44.10;;;11.58;23.40;96026.41;10365498;28;1595;-82
2021/04/22 16:44:03;;;;;;;;;;;12.70;44.80;;;11.59;24.11;96052.25;10376795;28;1647;-86
2021/04/22 16:49:09;;;;;;;;;;;12.70;45.60;;;11.50;25.19;96041.19;10380253;28;2421;-87
2021/04/22 16:59:46;;;;;;;;;;;12.50;46.50;;;11.30;26.19;96036.66;10368708;28;1938;-86
2021/04/22 17:04:52;;;;;;;;;;;12.40;47.10;;;11.20;25.83;96041.28;10393213;28;1796;-84
2021/04/22 17:09:54;;;;;;;;;;;12.30;47.20;;;11.10;26.14;96045.56;10405958;28;2017;-85
2021/04/22 17:31:30;;;;;;;;;;;11.90;45.00;;;10.72;23.28;96073.78;10444374;23;1895;-83
2021/04/22 17:36:32;;;;;;;;;;;11.80;44.50;;;10.58;24.21;96080.75;10486089;28;2028;-84
2021/04/22 17:41:34;;;;;;;;;;;11.70;44.80;;;10.50;23.70;96092.03;10474554;28;2003;-84
2021/04/22 17:46:36;;;;;;;;;;;11.60;44.40;;;10.38;23.60;96097.66;10483064;28;2011;-84
2021/04/22 17:51:50;;;;;;;;;;;11.50;44.20;;;10.35;23.98;96100.84;10491862;28;1822;-84
2021/04/22 17:56:51;;;;;;;;;;;11.40;44.30;;;10.10;24.68;96103.41;10492522;28;1984;-85
2021/04/22 18:01:55;;;;;;;;;;;11.30;45.00;;;9.99;24.66;96107.94;10483680;28;1877;-82
2021/04/22 18:06:57;;;;;;;;;;;11.20;44.80;;;9.80;23.56;96112.09;10487967;28;1887;-83
2021/04/22 18:12:00;;;;;;;;;;;11.00;44.10;;;9.57;23.88;96116.81;10436085;28;2037;-84
2021/04/22 18:55:44;;;;;;;;;;;;;;;;;;;;;
2021/04/22 19:19:52;;;;;;;;;;;9.40;50.90;;;8.16;31.73;96205.47;10080270;29;2093;-82
2021/04/22 19:43:54;;;;;;;;;;;;;;;;;;;;;
2021/04/22 19:50:11;;;;;;;;;;;10.50;54.00;;;7.45;34.56;96227.44;10103941;29;2304;-83
2021/04/22 20:07:48;;;;;;;;;;;9.40;55.00;;;7.36;35.13;96239.56;9999470;29;2128;-83
2021/04/22 20:25:22;;;;;;;;;;;8.40;55.50;;;7.12;35.89;96262.94;10301739;28;2174;-83
2021/04/22 20:31:06;;;;;;;;;;;9.50;56.60;;;7.05;36.62;96260.41;10323756;28;2112;-86
2021/04/22 20:36:35;;;;;;;;;;;9.70;57.40;;;7.04;36.32;96266.81;10361563;28;1676;-85
2021/04/22 20:42:09;;;;;;;;;;;9.50;57.70;;;6.94;37.48;96271.16;10373891;28;1925;-85
2021/04/22 20:54:09;;;;;;;;;;;;;;;;;;;;;
2021/04/22 20:59:31;;;;;;;;;;;8.60;59.30;;;6.59;39.09;96273.94;10276900;22;1805;-85
2021/04/22 21:05:00;;;;;;;;;;;7.70;59.40;;;6.44;39.90;96275.25;10384674;28;1819;-85
2021/04/22 22:16:36;;;;;;;;;;;7.70;69.10;;;5.08;47.41;96316.19;10155370;29;1961;-83
2021/04/22 22:58:40;;;;;;;;;;;5.90;69.90;;;4.71;48.73;96332.25;10147238;29;2070;-84
2021/04/22 23:15:36;;;;;;;;;;;6.90;71.80;;;4.41;50.74;96347.31;10317662;28;2098;-85
2021/04/22 23:26:41;;;;;;;;;;;7.00;73.20;;;4.26;51.41;96345.84;10351997;28;1903;-83
2021/04/22 23:32:41;;;;;;;;;;;5.60;72.80;;;4.17;52.61;96347.13;10366190;28;1936;-84
2021/04/22 23:55:31;;;;;;;;;;;5.20;76.70;;;3.87;55.03;96340.84;10383520;28;1839;-82
